createdAt,value
2019-06-15T00:00:17.032Z,75.8
2019-06-15T00:01:17.074Z,76.0
2019-06-15T00:02:16.349Z,75.8
2019-06-15T00:03:16.645Z,75.7
2019-06-15T00:04:16.913Z,75.8
2019-06-15T00:05:17.189Z,76.3
2019-06-15T00:06:16.461Z,76.2
2019-06-15T00:07:16.744Z,76.2
2019-06-15T00:08:17.039Z,76.3
2019-06-15T00:09:16.328Z,76.7
2019-06-15T00:10:16.614Z,76.8
2019-06-15T00:11:16.653Z,77.0
2019-06-15T00:12:16.915Z,76.9
2019-06-15T00:13:17.181Z,77.1
2019-06-15T00:14:16.451Z,77.3
2019-06-15T00:15:16.745Z,77.4
2019-06-15T00:16:17.025Z,77.7
2019-06-15T00:17:16.283Z,77.8
2019-06-15T00:18:16.558Z,77.8
2019-06-15T00:19:16.831Z,77.5
2019-06-15T00:20:17.133Z,78.0
2019-06-15T00:21:17.173Z,77.9
2019-06-15T00:22:16.452Z,77.9
2019-06-15T00:23:16.714Z,77.8
2019-06-15T00:24:16.990Z,78.0
2019-06-15T00:25:16.255Z,78.2
2019-06-15T00:26:16.541Z,78.5
2019-06-15T00:27:16.807Z,78.6
2019-06-15T00:28:17.075Z,79.0
2019-06-15T00:29:16.351Z,78.3
2019-06-15T00:30:16.644Z,78.5
2019-06-15T00:31:16.715Z,78.3
2019-06-15T00:32:16.985Z,78.4
2019-06-15T00:33:17.270Z,78.2
2019-06-15T00:34:16.546Z,78.2
2019-06-15T00:35:16.827Z,78.2
2019-06-15T00:36:17.098Z,78.3
2019-06-15T00:37:16.376Z,78.4
2019-06-15T00:38:16.640Z,78.8
2019-06-15T00:39:16.918Z,78.8
2019-06-15T00:40:17.225Z,79.2
2019-06-15T00:41:17.243Z,79.2
2019-06-15T00:42:16.510Z,79.3
2019-06-15T00:43:16.768Z,79.5
2019-06-15T00:44:17.031Z,79.8
2019-06-15T00:45:16.307Z,79.8
2019-06-15T00:46:16.573Z,79.8
2019-06-15T00:47:16.844Z,79.9
2019-06-15T00:48:17.118Z,80.0
2019-06-15T00:49:16.388Z,79.8
2019-06-15T00:50:16.662Z,79.7
2019-06-15T00:51:16.723Z,79.8
2019-06-15T00:52:16.989Z,79.8
2019-06-15T00:53:17.247Z,80.0
2019-06-15T00:54:16.521Z,79.6
2019-06-15T00:55:16.786Z,79.7
2019-06-15T00:56:17.048Z,79.8
2019-06-15T00:57:16.313Z,79.9
2019-06-15T00:58:16.592Z,80.1
2019-06-15T00:59:16.876Z,80.2
2019-06-15T01:00:17.177Z,80.0
2019-06-15T01:01:17.214Z,80.0
2019-06-15T01:02:16.485Z,80.7
2019-06-15T01:03:16.754Z,80.8
2019-06-15T01:04:17.033Z,80.8
2019-06-15T01:05:16.311Z,81.4
2019-06-15T01:06:16.584Z,81.7
2019-06-15T01:07:16.852Z,81.2
2019-06-15T01:08:17.126Z,80.9
2019-06-15T01:09:16.417Z,81.3
2019-06-15T01:10:16.723Z,81.0
2019-06-15T01:11:16.801Z,81.2
2019-06-15T01:12:17.083Z,81.2
2019-06-15T01:13:16.353Z,81.1
2019-06-15T01:14:16.635Z,81.2
2019-06-15T01:15:16.904Z,81.3
2019-06-15T01:16:17.191Z,81.4
2019-06-15T01:17:16.462Z,81.2
2019-06-15T01:18:16.739Z,81.2
2019-06-15T01:19:17.001Z,81.0
2019-06-15T01:20:16.320Z,81.2
2019-06-15T01:21:16.343Z,81.0
2019-06-15T01:22:16.606Z,81.1
2019-06-15T01:23:16.867Z,81.2
2019-06-15T01:24:17.155Z,81.1
2019-06-15T01:25:16.455Z,81.3
2019-06-15T01:26:16.723Z,81.2
2019-06-15T01:27:16.998Z,81.2
2019-06-15T01:28:16.270Z,81.3
2019-06-15T01:29:16.538Z,81.5
2019-06-15T01:30:16.820Z,82.2
2019-06-15T01:31:16.870Z,82.1
2019-06-15T01:32:17.650Z,82.2
2019-06-15T01:33:16.938Z,82.4
2019-06-15T01:34:17.226Z,82.8
2019-06-15T01:35:16.501Z,82.8
2019-06-15T01:36:16.773Z,82.3
2019-06-15T01:37:17.039Z,82.3
2019-06-15T01:38:16.304Z,82.6
2019-06-15T01:39:16.577Z,82.2
2019-06-15T01:40:16.859Z,82.6
2019-06-15T01:41:16.950Z,82.6
2019-06-15T01:42:17.218Z,82.4
2019-06-15T01:43:16.495Z,82.7
2019-06-15T01:44:16.871Z,82.7
2019-06-15T01:45:17.143Z,82.5
2019-06-15T01:46:16.408Z,82.8
2019-06-15T01:47:16.679Z,82.8
2019-06-15T01:48:16.951Z,83.0
2019-06-15T01:49:17.227Z,83.0
2019-06-15T01:50:16.502Z,83.2
2019-06-15T01:51:16.571Z,83.2
2019-06-15T01:52:16.835Z,83.5
2019-06-15T01:53:17.101Z,83.9
2019-06-15T01:54:16.374Z,83.9
2019-06-15T01:55:21.386Z,83.8
2019-06-15T01:56:16.715Z,83.8
2019-06-15T01:57:17.048Z,83.7
2019-06-15T01:58:16.334Z,83.8
2019-06-15T01:59:16.661Z,83.8
2019-06-15T02:00:16.946Z,84.0
2019-06-15T02:01:17.015Z,84.1
2019-06-15T02:02:16.311Z,84.0
2019-06-15T02:03:16.583Z,84.0
2019-06-15T02:04:16.861Z,84.0
2019-06-15T02:05:17.149Z,84.0
2019-06-15T02:06:16.424Z,84.0
2019-06-15T02:07:16.696Z,84.2
2019-06-15T02:08:16.985Z,84.2
2019-06-15T02:09:17.316Z,84.2
2019-06-15T02:10:16.581Z,84.2
2019-06-15T02:11:16.650Z,84.3
2019-06-15T02:12:16.917Z,84.7
2019-06-15T02:13:17.182Z,84.5
2019-06-15T02:14:16.514Z,84.7
2019-06-15T02:15:16.786Z,84.7
2019-06-15T02:16:17.065Z,84.7
2019-06-15T02:17:16.376Z,84.6
2019-06-15T02:18:16.652Z,84.7
2019-06-15T02:19:16.915Z,84.8
2019-06-15T02:20:17.230Z,85.2
2019-06-15T02:21:16.260Z,85.0
2019-06-15T02:22:16.533Z,84.8
2019-06-15T02:23:16.811Z,84.9
2019-06-15T02:24:17.081Z,85.2
2019-06-15T02:25:16.358Z,85.3
2019-06-15T02:26:16.629Z,85.4
2019-06-15T02:27:16.901Z,85.5
2019-06-15T02:28:17.166Z,85.5
2019-06-15T02:29:16.445Z,85.5
2019-06-15T02:30:16.745Z,85.7
2019-06-15T02:31:16.794Z,85.6
2019-06-15T02:32:17.057Z,85.8
2019-06-15T02:33:16.325Z,85.7
2019-06-15T02:34:16.610Z,85.7
2019-06-15T02:35:16.887Z,85.7
2019-06-15T02:36:17.160Z,85.9
2019-06-15T02:37:16.438Z,86.2
2019-06-15T02:38:16.718Z,86.2
2019-06-15T02:39:16.716Z,86.3
2019-06-15T02:40:17.000Z,86.4
2019-06-15T02:41:17.093Z,86.4
2019-06-15T02:42:16.407Z,86.3
2019-06-15T02:43:16.681Z,86.3
2019-06-15T02:44:16.970Z,86.3
2019-06-15T02:45:17.236Z,86.3
2019-06-15T02:46:16.524Z,86.4
2019-06-15T02:47:16.797Z,86.6
2019-06-15T02:48:17.104Z,86.4
2019-06-15T02:49:16.372Z,86.4
2019-06-15T02:50:16.705Z,86.5
2019-06-15T02:51:16.704Z,86.5
2019-06-15T02:52:16.973Z,86.6
2019-06-15T02:53:17.266Z,86.5
2019-06-15T02:54:16.549Z,86.5
2019-06-15T02:55:16.815Z,86.3
2019-06-15T02:56:17.117Z,86.2
2019-06-15T02:57:16.403Z,86.2
2019-06-15T02:58:16.673Z,86.2
2019-06-15T02:59:16.954Z,86.3
2019-06-15T03:00:17.238Z,86.3
2019-06-15T03:01:16.363Z,86.4
2019-06-15T03:02:16.626Z,86.5
2019-06-15T03:03:16.886Z,86.4
2019-06-15T03:04:17.157Z,86.4
2019-06-15T03:05:16.432Z,86.5
2019-06-15T03:06:16.687Z,86.6
2019-06-15T03:07:16.988Z,86.8
2019-06-15T03:08:17.252Z,86.7
2019-06-15T03:09:16.524Z,86.7
2019-06-15T03:10:16.811Z,86.6
2019-06-15T03:11:16.890Z,86.6
2019-06-15T03:12:17.198Z,86.7
2019-06-15T03:13:16.459Z,86.8
2019-06-15T03:14:16.720Z,86.9
2019-06-15T03:15:16.995Z,87.0
2019-06-15T03:16:16.264Z,86.9
2019-06-15T03:17:16.531Z,87.0
2019-06-15T03:18:16.795Z,86.7
2019-06-15T03:19:17.058Z,86.8
2019-06-15T03:20:16.348Z,86.8
2019-06-15T03:21:16.408Z,86.5
2019-06-15T03:22:16.709Z,86.6
2019-06-15T03:23:16.979Z,86.8
2019-06-15T03:24:17.252Z,87.0
2019-06-15T03:25:16.541Z,87.0
2019-06-15T03:26:16.823Z,87.2
2019-06-15T03:27:17.088Z,87.3
2019-06-15T03:28:16.360Z,87.2
2019-06-15T03:29:16.624Z,87.5
2019-06-15T03:30:16.906Z,87.5
2019-06-15T03:31:16.958Z,87.7
2019-06-15T03:32:17.250Z,87.7
2019-06-15T03:33:16.803Z,87.9
2019-06-15T03:34:17.066Z,87.8
2019-06-15T03:35:16.606Z,87.8
2019-06-15T03:36:17.029Z,87.8
2019-06-15T03:37:16.310Z,87.8
2019-06-15T03:38:16.619Z,88.0
2019-06-15T03:39:16.894Z,88.1
2019-06-15T03:40:17.159Z,88.2
2019-06-15T03:41:17.258Z,88.2
2019-06-15T03:42:16.533Z,88.1
2019-06-15T03:43:16.802Z,88.0
2019-06-15T03:44:17.059Z,88.2
2019-06-15T03:45:16.332Z,88.0
2019-06-15T03:46:16.601Z,88.2
2019-06-15T03:47:16.859Z,88.3
2019-06-15T03:48:17.145Z,88.4
2019-06-15T03:49:16.413Z,88.3
2019-06-15T03:50:16.687Z,88.3
2019-06-15T03:51:16.763Z,88.3
2019-06-15T03:52:17.046Z,88.3
2019-06-15T03:53:16.334Z,88.3
2019-06-15T03:54:16.599Z,88.5
2019-06-15T03:55:16.881Z,88.2
2019-06-15T03:56:22.263Z,88.7
2019-06-15T03:57:16.649Z,88.3
2019-06-15T03:58:16.940Z,88.3
2019-06-15T03:59:17.217Z,88.3
2019-06-15T04:00:16.523Z,88.3
2019-06-15T04:01:16.573Z,88.7
2019-06-15T04:02:16.853Z,88.4
2019-06-15T04:03:17.217Z,88.3
2019-06-15T04:04:16.543Z,88.4
2019-06-15T04:05:16.824Z,88.5
2019-06-15T04:06:17.087Z,88.4
2019-06-15T04:07:16.357Z,88.3
2019-06-15T04:08:16.618Z,88.3
2019-06-15T04:09:16.897Z,88.3
2019-06-15T04:10:17.182Z,88.2
2019-06-15T04:11:17.307Z,88.0
2019-06-15T04:12:16.582Z,87.7
2019-06-15T04:13:16.854Z,87.8
2019-06-15T04:14:17.122Z,87.8
2019-06-15T04:15:16.390Z,87.6
2019-06-15T04:16:16.697Z,87.5
2019-06-15T04:17:16.980Z,87.3
2019-06-15T04:18:16.265Z,87.3
2019-06-15T04:19:16.547Z,87.1
2019-06-15T04:20:16.823Z,87.1
2019-06-15T04:21:16.891Z,86.8
2019-06-15T04:22:17.188Z,86.5
2019-06-15T04:23:16.464Z,86.4
2019-06-15T04:24:16.767Z,86.6
2019-06-15T04:25:17.042Z,86.8
2019-06-15T04:26:16.310Z,86.8
2019-06-15T04:27:16.573Z,86.9
2019-06-15T04:28:16.859Z,86.8
2019-06-15T04:29:17.136Z,86.8
2019-06-15T04:30:16.411Z,86.3
2019-06-15T04:31:16.463Z,86.8
2019-06-15T04:32:16.736Z,86.2
2019-06-15T04:33:17.013Z,85.9
2019-06-15T04:34:16.328Z,86.0
2019-06-15T04:35:16.592Z,85.8
2019-06-15T04:36:16.858Z,86.2
2019-06-15T04:37:17.133Z,86.2
2019-06-15T04:38:16.396Z,85.9
2019-06-15T04:39:16.675Z,86.0
2019-06-15T04:40:16.951Z,85.6
2019-06-15T04:41:16.362Z,85.5
2019-06-15T04:42:16.638Z,85.2
2019-06-15T04:43:16.914Z,85.2
2019-06-15T04:44:17.183Z,85.5
2019-06-15T04:45:16.463Z,85.5
2019-06-15T04:46:16.741Z,85.3
2019-06-15T04:47:17.010Z,85.3
2019-06-15T04:48:16.282Z,85.2
2019-06-15T04:49:16.564Z,85.4
2019-06-15T04:50:16.843Z,85.5
2019-06-15T04:51:16.927Z,85.8
2019-06-15T04:52:17.216Z,85.7
2019-06-15T04:53:16.501Z,85.5
2019-06-15T04:54:16.769Z,86.1
2019-06-15T04:55:17.121Z,85.8
2019-06-15T04:56:16.396Z,85.8
2019-06-15T04:57:16.674Z,85.8
2019-06-15T04:58:17.000Z,85.6
2019-06-15T04:59:16.322Z,85.0
2019-06-15T05:00:16.604Z,85.5
2019-06-15T05:01:16.667Z,85.0
2019-06-15T05:02:16.933Z,84.8
2019-06-15T05:03:17.209Z,84.7
2019-06-15T05:04:16.483Z,83.7
2019-06-15T05:05:16.804Z,83.3
2019-06-15T05:06:17.103Z,83.4
2019-06-15T05:07:16.378Z,83.7
2019-06-15T05:08:16.637Z,82.8
2019-06-15T05:09:16.911Z,82.5
2019-06-15T05:10:17.200Z,82.3
2019-06-15T05:11:16.321Z,81.6
2019-06-15T05:12:16.589Z,81.2
2019-06-15T05:13:16.857Z,81.0
2019-06-15T05:14:17.139Z,81.0
2019-06-15T05:15:16.408Z,81.0
2019-06-15T05:16:16.674Z,81.3
2019-06-15T05:17:16.945Z,80.7
2019-06-15T05:18:17.336Z,80.8
2019-06-15T05:19:16.616Z,80.7
2019-06-15T05:20:16.894Z,80.9
2019-06-15T05:21:16.958Z,81.3
2019-06-15T05:22:17.244Z,80.7
2019-06-15T05:23:16.521Z,80.8
2019-06-15T05:24:16.795Z,81.0
2019-06-15T05:25:17.073Z,80.8
2019-06-15T05:26:16.344Z,80.9
2019-06-15T05:27:16.616Z,81.1
2019-06-15T05:28:16.950Z,81.0
2019-06-15T05:29:17.229Z,81.0
2019-06-15T05:30:16.502Z,80.5
2019-06-15T05:31:16.585Z,80.8
2019-06-15T05:32:16.849Z,81.0
2019-06-15T05:33:17.175Z,80.3
2019-06-15T05:34:16.456Z,79.5
2019-06-15T05:35:16.740Z,80.2
2019-06-15T05:36:17.015Z,79.6
2019-06-15T05:37:16.321Z,79.8
2019-06-15T05:38:16.643Z,79.2
2019-06-15T05:39:16.956Z,78.8
2019-06-15T05:40:17.237Z,78.6
2019-06-15T05:41:16.284Z,78.6
2019-06-15T05:42:16.607Z,78.4
2019-06-15T05:43:16.872Z,78.2
2019-06-15T05:44:17.142Z,78.2
2019-06-15T05:45:16.431Z,77.8
2019-06-15T05:46:16.698Z,77.4
2019-06-15T05:47:16.960Z,77.2
2019-06-15T05:48:17.241Z,76.8
2019-06-15T05:49:16.510Z,76.8
2019-06-15T05:50:16.794Z,76.7
2019-06-15T05:51:16.855Z,77.1
2019-06-15T05:52:17.132Z,76.9
2019-06-15T05:53:16.395Z,75.7
2019-06-15T05:54:16.666Z,75.7
2019-06-15T05:55:16.940Z,75.6
2019-06-15T05:56:17.213Z,75.7
2019-06-15T05:57:22.107Z,74.8
2019-06-15T05:58:16.410Z,74.2
2019-06-15T05:59:16.687Z,74.4
2019-06-15T06:00:17.018Z,74.4
2019-06-15T06:01:17.026Z,74.3
2019-06-15T06:02:16.302Z,73.6
2019-06-15T06:03:16.575Z,73.0
2019-06-15T06:04:16.855Z,73.0
2019-06-15T06:05:17.160Z,71.7
2019-06-15T06:06:16.442Z,71.2
2019-06-15T06:07:16.707Z,70.8
2019-06-15T06:08:16.975Z,70.9
2019-06-15T06:09:17.238Z,69.9
2019-06-15T06:10:16.511Z,70.1
2019-06-15T06:11:16.581Z,68.2
2019-06-15T06:12:16.845Z,68.7
2019-06-15T06:13:17.119Z,67.5
2019-06-15T06:14:16.399Z,67.2
2019-06-15T06:15:16.678Z,67.0
2019-06-15T06:16:16.945Z,66.2
2019-06-15T06:17:17.252Z,65.8
2019-06-15T06:18:16.536Z,65.2
2019-06-15T06:19:16.800Z,65.3
2019-06-15T06:20:17.109Z,65.2
2019-06-15T06:21:17.143Z,65.0
2019-06-15T06:22:16.406Z,65.2
2019-06-15T06:23:16.675Z,65.3
2019-06-15T06:24:16.938Z,64.7
2019-06-15T06:25:17.211Z,63.6
2019-06-15T06:26:16.487Z,63.0
2019-06-15T06:27:16.786Z,62.8
2019-06-15T06:28:17.057Z,61.8
2019-06-15T06:29:16.330Z,60.8
2019-06-15T06:30:16.606Z,60.6
2019-06-15T06:31:16.663Z,60.4
2019-06-15T06:32:16.957Z,60.5
2019-06-15T06:33:16.269Z,60.9
2019-06-15T06:34:16.560Z,60.0
2019-06-15T06:35:16.833Z,60.2
2019-06-15T06:36:17.109Z,60.9
2019-06-15T06:37:16.382Z,60.5
2019-06-15T06:38:16.680Z,60.8
2019-06-15T06:39:16.949Z,59.9
2019-06-15T06:40:17.255Z,59.7
2019-06-15T06:41:16.278Z,59.6
2019-06-15T06:42:16.561Z,59.7
2019-06-15T06:43:16.860Z,59.5
2019-06-15T06:44:17.195Z,59.4
2019-06-15T06:45:16.535Z,60.6
2019-06-15T06:46:16.805Z,60.2
2019-06-15T06:47:17.075Z,60.1
2019-06-15T06:48:16.353Z,60.8
2019-06-15T06:49:16.626Z,60.5
2019-06-15T06:50:16.900Z,61.4
2019-06-15T06:51:16.989Z,61.4
2019-06-15T06:52:17.269Z,61.4
2019-06-15T06:53:16.540Z,61.3
2019-06-15T06:54:16.811Z,61.6
2019-06-15T06:55:17.092Z,61.5
2019-06-15T06:56:16.439Z,61.7
2019-06-15T06:57:16.736Z,61.3
2019-06-15T06:58:17.013Z,61.0
2019-06-15T06:59:16.283Z,60.8
2019-06-15T07:00:16.554Z,61.0
2019-06-15T07:01:16.624Z,60.9
2019-06-15T07:02:16.886Z,61.2
2019-06-15T07:03:17.188Z,60.8
2019-06-15T07:04:16.451Z,61.0
2019-06-15T07:05:16.739Z,61.5
2019-06-15T07:06:17.025Z,61.2
2019-06-15T07:07:16.294Z,60.9
2019-06-15T07:08:16.571Z,61.0
2019-06-15T07:09:16.863Z,60.7
2019-06-15T07:10:17.162Z,60.8
2019-06-15T07:11:17.206Z,60.5
2019-06-15T07:12:16.476Z,60.2
2019-06-15T07:13:16.729Z,60.7
2019-06-15T07:14:16.991Z,60.4
2019-06-15T07:15:16.260Z,60.9
2019-06-15T07:16:16.534Z,61.2
2019-06-15T07:17:16.840Z,61.8
2019-06-15T07:18:17.121Z,61.8
2019-06-15T07:19:16.393Z,61.4
2019-06-15T07:20:16.667Z,61.3
2019-06-15T07:21:16.721Z,61.1
2019-06-15T07:22:16.993Z,60.8
2019-06-15T07:23:16.260Z,61.2
2019-06-15T07:24:16.535Z,61.1
2019-06-15T07:25:16.806Z,61.6
2019-06-15T07:26:17.085Z,61.6
2019-06-15T07:27:16.374Z,60.8
2019-06-15T07:28:16.653Z,60.8
2019-06-15T07:29:16.936Z,60.4
2019-06-15T07:30:17.249Z,61.4
2019-06-15T07:31:16.263Z,61.2
2019-06-15T07:32:16.530Z,59.6
2019-06-15T07:33:16.808Z,59.9
2019-06-15T07:34:17.079Z,60.5
2019-06-15T07:35:16.357Z,60.8
2019-06-15T07:36:16.634Z,59.1
2019-06-15T07:37:16.902Z,60.2
2019-06-15T07:38:17.175Z,59.2
2019-06-15T07:39:16.456Z,59.2
2019-06-15T07:40:16.736Z,59.8
2019-06-15T07:41:16.804Z,59.6
2019-06-15T07:42:17.085Z,58.8
2019-06-15T07:43:16.353Z,58.2
2019-06-15T07:44:16.646Z,58.5
2019-06-15T07:45:16.941Z,59.2
2019-06-15T07:46:17.210Z,60.0
2019-06-15T07:47:16.486Z,60.0
2019-06-15T07:48:16.753Z,59.4
2019-06-15T07:49:17.235Z,60.0
2019-06-15T07:50:16.510Z,59.0
2019-06-15T07:51:16.581Z,58.0
2019-06-15T07:52:16.877Z,60.0
2019-06-15T07:53:17.179Z,60.5
2019-06-15T07:54:16.484Z,60.0
2019-06-15T07:55:16.757Z,60.1
2019-06-15T07:56:17.054Z,60.2
2019-06-15T07:57:16.355Z,59.7
2019-06-15T07:58:25.074Z,58.9
2019-06-15T07:59:16.420Z,58.5
2019-06-15T08:00:16.700Z,59.7
2019-06-15T08:01:16.773Z,59.4
2019-06-15T08:02:17.050Z,59.2
2019-06-15T08:03:16.323Z,59.0
2019-06-15T08:04:16.597Z,59.3
2019-06-15T08:05:16.861Z,58.8
2019-06-15T08:06:17.134Z,59.0
2019-06-15T08:07:16.458Z,58.8
2019-06-15T08:08:16.762Z,59.2
2019-06-15T08:09:17.036Z,59.5
2019-06-15T08:10:16.309Z,59.7
2019-06-15T08:11:16.357Z,59.4
2019-06-15T08:12:16.639Z,59.6
2019-06-15T08:13:16.944Z,59.3
2019-06-15T08:14:17.262Z,58.7
2019-06-15T08:15:16.533Z,58.9
2019-06-15T08:16:16.804Z,57.9
2019-06-15T08:17:17.076Z,57.5
2019-06-15T08:18:16.347Z,56.5
2019-06-15T08:19:16.633Z,55.2
2019-06-15T08:20:16.972Z,56.2
2019-06-15T08:21:16.974Z,56.7
2019-06-15T08:22:17.254Z,57.7
2019-06-15T08:23:16.537Z,58.8
2019-06-15T08:24:16.820Z,58.3
2019-06-15T08:25:17.098Z,57.9
2019-06-15T08:26:16.383Z,59.0
2019-06-15T08:27:16.646Z,58.5
2019-06-15T08:28:16.918Z,59.0
2019-06-15T08:29:17.229Z,58.8
2019-06-15T08:30:16.516Z,58.5
2019-06-15T08:31:16.562Z,57.5
2019-06-15T08:32:16.828Z,57.9
2019-06-15T08:33:17.099Z,57.8
2019-06-15T08:34:16.407Z,57.4
2019-06-15T08:35:16.712Z,57.4
2019-06-15T08:36:17.028Z,57.9
2019-06-15T08:37:16.327Z,58.4
2019-06-15T08:38:16.593Z,57.8
2019-06-15T08:39:16.869Z,57.2
2019-06-15T08:40:17.167Z,57.5
2019-06-15T08:41:17.193Z,57.1
2019-06-15T08:42:16.474Z,57.0
2019-06-15T08:43:16.742Z,57.2
2019-06-15T08:44:17.010Z,57.6
2019-06-15T08:45:16.316Z,57.2
2019-06-15T08:46:16.592Z,56.1
2019-06-15T08:47:16.870Z,57.0
2019-06-15T08:48:17.135Z,57.2
2019-06-15T08:49:16.406Z,56.7
2019-06-15T08:50:16.687Z,55.9
2019-06-15T08:51:16.769Z,55.7
2019-06-15T08:52:17.047Z,56.7
2019-06-15T08:53:16.335Z,57.1
2019-06-15T08:54:16.604Z,56.0
2019-06-15T08:55:16.870Z,55.7
2019-06-15T08:56:17.135Z,55.7
2019-06-15T08:57:16.477Z,56.6
2019-06-15T08:58:16.771Z,57.0
2019-06-15T08:59:17.082Z,56.5
2019-06-15T09:00:16.421Z,56.7
2019-06-15T09:01:16.480Z,56.9
2019-06-15T09:02:16.765Z,57.1
2019-06-15T09:03:17.039Z,56.5
2019-06-15T09:04:16.301Z,56.8
2019-06-15T09:05:16.586Z,56.9
2019-06-15T09:06:16.859Z,56.3
2019-06-15T09:07:17.132Z,56.6
2019-06-15T09:08:16.399Z,56.0
2019-06-15T09:09:16.658Z,55.8
2019-06-15T09:10:16.926Z,56.0
2019-06-15T09:11:16.997Z,56.3
2019-06-15T09:12:16.266Z,56.0
2019-06-15T09:13:16.537Z,56.8
2019-06-15T09:14:16.804Z,56.3
2019-06-15T09:15:17.073Z,56.4
2019-06-15T09:16:16.339Z,56.8
2019-06-15T09:17:16.645Z,55.4
2019-06-15T09:18:16.914Z,55.0
2019-06-15T09:19:17.201Z,55.6
2019-06-15T09:20:16.487Z,54.8
2019-06-15T09:21:16.530Z,53.8
2019-06-15T09:22:16.807Z,53.5
2019-06-15T09:23:17.087Z,56.0
2019-06-15T09:24:16.356Z,56.2
2019-06-15T09:25:16.637Z,56.0
2019-06-15T09:26:16.920Z,54.2
2019-06-15T09:27:17.199Z,53.1
2019-06-15T09:28:16.474Z,53.7
2019-06-15T09:29:16.753Z,52.5
2019-06-15T09:30:17.068Z,54.1
2019-06-15T09:31:17.105Z,54.5
2019-06-15T09:32:16.385Z,53.8
2019-06-15T09:33:16.659Z,54.4
2019-06-15T09:34:19.595Z,54.1
2019-06-15T09:35:16.894Z,54.0
2019-06-15T09:36:17.174Z,53.9
2019-06-15T09:37:16.437Z,53.1
2019-06-15T09:38:16.749Z,52.5
2019-06-15T09:39:17.106Z,52.0
2019-06-15T09:40:16.380Z,52.4
2019-06-15T09:41:16.486Z,52.0
2019-06-15T09:42:16.788Z,53.8
2019-06-15T09:43:17.066Z,53.8
2019-06-15T09:44:16.337Z,52.8
2019-06-15T09:45:16.620Z,53.5
2019-06-15T09:46:16.890Z,53.7
2019-06-15T09:47:17.154Z,53.8
2019-06-15T09:48:16.421Z,54.8
2019-06-15T09:49:16.688Z,54.5
2019-06-15T09:50:16.994Z,54.9
2019-06-15T09:51:17.043Z,54.5
2019-06-15T09:52:16.317Z,54.9
2019-06-15T09:53:16.584Z,56.4
2019-06-15T09:54:16.853Z,54.2
2019-06-15T09:55:17.122Z,54.9
2019-06-15T09:56:16.398Z,55.3
2019-06-15T09:57:16.674Z,54.5
2019-06-15T09:58:16.957Z,54.5
2019-06-15T09:59:26.467Z,53.7
2019-06-15T10:00:16.850Z,54.0
2019-06-15T10:01:16.893Z,55.3
2019-06-15T10:02:17.168Z,54.9
2019-06-15T10:03:16.437Z,55.3
2019-06-15T10:04:16.714Z,56.3
2019-06-15T10:05:16.979Z,56.8
2019-06-15T10:06:17.248Z,56.3
2019-06-15T10:07:16.514Z,56.1
2019-06-15T10:08:16.811Z,55.8
2019-06-15T10:09:17.098Z,55.9
2019-06-15T10:10:16.374Z,55.9
2019-06-15T10:11:16.463Z,56.1
2019-06-15T10:12:16.759Z,55.7
2019-06-15T10:13:17.049Z,55.2
2019-06-15T10:14:16.333Z,54.9
2019-06-15T10:15:16.594Z,55.0
2019-06-15T10:16:16.883Z,55.3
2019-06-15T10:17:17.154Z,55.5
2019-06-15T10:18:16.424Z,55.6
2019-06-15T10:19:16.726Z,55.3
2019-06-15T10:20:17.023Z,55.6
2019-06-15T10:21:17.092Z,55.8
2019-06-15T10:22:16.373Z,55.8
2019-06-15T10:23:16.636Z,55.7
2019-06-15T10:24:16.909Z,55.6
2019-06-15T10:25:17.231Z,54.5
2019-06-15T10:26:16.503Z,53.7
2019-06-15T10:27:16.788Z,52.9
2019-06-15T10:28:17.059Z,53.7
2019-06-15T10:29:16.327Z,54.0
2019-06-15T10:30:16.631Z,53.9
2019-06-15T10:31:16.675Z,54.0
2019-06-15T10:32:16.938Z,54.0
2019-06-15T10:33:17.215Z,54.2
2019-06-15T10:34:16.485Z,54.0
2019-06-15T10:35:16.766Z,54.0
2019-06-15T10:36:17.150Z,54.5
2019-06-15T10:37:16.426Z,55.8
2019-06-15T10:38:16.694Z,56.2
2019-06-15T10:39:16.962Z,56.5
2019-06-15T10:40:17.262Z,55.6
2019-06-15T10:41:16.283Z,55.3
2019-06-15T10:42:16.544Z,55.4
2019-06-15T10:43:16.812Z,55.3
2019-06-15T10:44:17.085Z,56.2
2019-06-15T10:45:16.375Z,55.9
2019-06-15T10:46:16.682Z,56.4
2019-06-15T10:47:16.966Z,57.3
2019-06-15T10:48:17.243Z,57.4
2019-06-15T10:49:16.521Z,57.9
2019-06-15T10:50:16.803Z,57.5
2019-06-15T10:51:16.871Z,56.2
2019-06-15T10:52:17.172Z,56.8
2019-06-15T10:53:16.457Z,56.8
2019-06-15T10:54:16.716Z,57.8
2019-06-15T10:55:16.987Z,58.0
2019-06-15T10:56:17.274Z,57.5
2019-06-15T10:57:16.595Z,57.0
2019-06-15T10:58:16.876Z,57.4
2019-06-15T10:59:17.148Z,57.8
2019-06-15T11:00:16.449Z,58.2
2019-06-15T11:01:16.492Z,58.2
2019-06-15T11:02:16.774Z,57.7
2019-06-15T11:03:17.039Z,57.4
2019-06-15T11:04:16.316Z,57.7
2019-06-15T11:05:16.611Z,57.8
2019-06-15T11:06:16.877Z,57.3
2019-06-15T11:07:17.195Z,57.2
2019-06-15T11:08:16.474Z,58.0
2019-06-15T11:09:16.758Z,57.5
2019-06-15T11:10:17.020Z,57.0
2019-06-15T11:11:17.094Z,56.5
2019-06-15T11:12:16.362Z,56.0
2019-06-15T11:13:16.633Z,56.3
2019-06-15T11:14:16.900Z,57.1
2019-06-15T11:15:17.205Z,56.5
2019-06-15T11:16:16.471Z,57.2
2019-06-15T11:17:16.751Z,56.9
2019-06-15T11:18:17.026Z,56.1
2019-06-15T11:19:16.306Z,56.5
2019-06-15T11:20:16.890Z,57.0
2019-06-15T11:21:16.638Z,56.8
2019-06-15T11:22:16.909Z,56.9
2019-06-15T11:23:17.191Z,57.7
2019-06-15T11:24:16.462Z,56.5
2019-06-15T11:25:16.749Z,57.2
2019-06-15T11:26:17.019Z,56.2
2019-06-15T11:27:16.304Z,56.3
2019-06-15T11:28:16.558Z,56.0
2019-06-15T11:29:16.827Z,57.5
2019-06-15T11:30:17.120Z,58.2
2019-06-15T11:31:17.190Z,58.2
2019-06-15T11:32:16.452Z,58.4
2019-06-15T11:33:16.726Z,57.9
2019-06-15T11:34:16.998Z,58.6
2019-06-15T11:35:16.273Z,58.3
2019-06-15T11:36:16.556Z,58.2
2019-06-15T11:37:16.820Z,57.6
2019-06-15T11:38:17.092Z,57.2
2019-06-15T11:39:16.412Z,57.1
2019-06-15T11:40:16.727Z,55.8
2019-06-15T11:41:16.791Z,55.6
2019-06-15T11:42:17.068Z,56.3
2019-06-15T11:43:16.341Z,56.1
2019-06-15T11:44:16.631Z,55.9
2019-06-15T11:45:16.924Z,55.8
2019-06-15T11:46:17.269Z,55.6
2019-06-15T11:47:16.540Z,55.3
2019-06-15T11:48:16.865Z,55.6
2019-06-15T11:49:17.134Z,55.7
2019-06-15T11:50:16.430Z,56.1
2019-06-15T11:51:16.474Z,55.4
2019-06-15T11:52:16.740Z,55.9
2019-06-15T11:53:17.013Z,56.5
2019-06-15T11:54:16.307Z,56.1
2019-06-15T11:55:20.141Z,56.6
2019-06-15T11:56:16.446Z,56.5
2019-06-15T11:57:16.720Z,55.7
2019-06-15T11:58:17.001Z,56.6
2019-06-15T11:59:16.291Z,56.3
2019-06-15T12:00:31.434Z,56.6
2019-06-15T12:01:19.130Z,56.5
2019-06-15T12:02:16.428Z,56.8
2019-06-15T12:03:16.704Z,57.1
2019-06-15T12:04:16.983Z,57.2
2019-06-15T12:05:16.269Z,57.0
2019-06-15T12:06:16.544Z,57.1
2019-06-15T12:07:16.816Z,57.1
2019-06-15T12:08:17.099Z,57.4
2019-06-15T12:09:16.386Z,57.2
2019-06-15T12:10:16.656Z,56.7
2019-06-15T12:11:16.695Z,58.0
2019-06-15T12:12:16.964Z,57.8
2019-06-15T12:13:17.231Z,57.8
2019-06-15T12:14:16.512Z,57.9
2019-06-15T12:15:16.786Z,57.3
2019-06-15T12:16:17.046Z,57.5
2019-06-15T12:17:16.325Z,57.1
2019-06-15T12:18:16.595Z,57.8
2019-06-15T12:19:16.874Z,56.5
2019-06-15T12:20:17.207Z,56.3
2019-06-15T12:21:17.235Z,56.4
2019-06-15T12:22:16.509Z,55.9
2019-06-15T12:23:16.794Z,56.4
2019-06-15T12:24:17.067Z,56.6
2019-06-15T12:25:16.338Z,56.7
2019-06-15T12:26:16.606Z,57.0
2019-06-15T12:27:16.876Z,56.8
2019-06-15T12:28:17.168Z,56.7
2019-06-15T12:29:16.511Z,56.9
2019-06-15T12:30:16.790Z,57.1
2019-06-15T12:31:16.865Z,57.1
2019-06-15T12:32:17.211Z,57.5
2019-06-15T12:33:16.573Z,57.0
2019-06-15T12:34:16.858Z,57.2
2019-06-15T12:35:17.122Z,57.7
2019-06-15T12:36:19.866Z,56.9
2019-06-15T12:37:17.134Z,57.2
2019-06-15T12:38:16.439Z,56.3
2019-06-15T12:39:16.717Z,56.9
2019-06-15T12:40:17.036Z,57.0
2019-06-15T12:41:17.062Z,57.0
2019-06-15T12:42:16.337Z,56.8
2019-06-15T12:43:16.609Z,57.3
2019-06-15T12:44:16.888Z,57.6
2019-06-15T12:45:17.158Z,56.8
2019-06-15T12:46:16.432Z,57.1
2019-06-15T12:47:16.704Z,56.6
2019-06-15T12:48:16.976Z,56.7
2019-06-15T12:49:17.255Z,56.8
2019-06-15T12:50:16.551Z,57.1
2019-06-15T12:51:16.747Z,57.7
2019-06-15T12:52:17.027Z,57.4
2019-06-15T12:53:16.301Z,56.9
2019-06-15T12:54:16.573Z,57.4
2019-06-15T12:55:16.850Z,56.4
2019-06-15T12:56:17.122Z,56.9
2019-06-15T12:57:16.391Z,56.7
2019-06-15T12:58:16.723Z,56.6
2019-06-15T12:59:17.013Z,57.1
2019-06-15T13:00:16.290Z,56.8
2019-06-15T13:01:16.443Z,57.0
2019-06-15T13:02:16.764Z,57.5
2019-06-15T13:03:17.035Z,57.3
2019-06-15T13:04:16.325Z,57.2
2019-06-15T13:05:16.627Z,57.4
2019-06-15T13:06:16.909Z,57.5
2019-06-15T13:07:17.172Z,57.9
2019-06-15T13:08:16.457Z,57.7
2019-06-15T13:09:16.756Z,57.9
2019-06-15T13:10:18.293Z,57.6
2019-06-15T13:11:17.242Z,57.5
2019-06-15T13:12:16.584Z,57.0
2019-06-15T13:13:16.858Z,57.3
2019-06-15T13:14:17.133Z,57.0
2019-06-15T13:15:16.410Z,57.1
2019-06-15T13:16:16.685Z,56.8
2019-06-15T13:17:16.960Z,56.9
2019-06-15T13:18:17.235Z,57.5